메인 페이지
METAR-TAF:

METAR-TAF

공항 :

코펜하겐 카스트럽 국제공항

코펜하겐, 덴마크

위도: 55-37N, 경도: 012-39E, 고도: 5m

현재 날씨관측

예보는 30분 전, 01:50시(UTC)에 발표되었습니다.
6kt
온도 13°C
습도 88%
기압 1018 hPa
시정 10km 이상
1500m 미만 상공 구름 및 적란운 없음

METAR: EKCH 210150Z 28006KT CAVOK 13/11 Q1018 NOSIG

시각: 04:20 (02:20 UTC)

예보

예보는 3 시간 28분 전, 22:52시(UTC)에 발표되었습니다.
예보 대상 시간: 21일 00시부터 21일 24시까지 (UTC)
서북서8kt
시정 10km 이상
고도 3000ft 상공 구름 보통

TAF: EKCH 202252Z 2100/2124 29008KT 9999 SCT030

4,000개 이상의 공항 관측 자료 및 예보 (METAR 및 TAF 보고).

지도상에서 검색 가능한 기상관측소가 노란 점과 빨간 점으로 표시되어 있습니다.

기상관측소 명을 보려면 표시 위로 마우스를 이동하세요.

날씨 관측과 예보를 보려면 클릭하세요.

지도 변경 : 확대하려면 엑스 표시가 있는 녹색 버튼, 축소하려면 빼기 표시가 있는 녹색 버튼, 다음 페이지의 지도를 보려면 녹색 화살표를 클릭하세요.


METAR-TAF: